Kezdőlap
METAR-TAF:

METAR-TAF

Repülőterek :

Vadsø, Norvégia

földrajzi szélesség: 70-04N, földrajzi hosszúság: 029-51E, magasság: 3 m

Jelenlegi meteorológiai megfigyelések

A jelentés 23 perccel ezelõtt készült, 23:50 UTC
Nyugati szél 22 kt
Hőmérséklet 4°C
Páratartalom 81%
Légköri nyomás 1010 hPa
Látótávolság 10 km, vagy több
Kevés felhő 1500 lábon
Szórványos felhőzet 2500 lábon

METAR: ENVD 192350Z 28022KT 9999 RERA FEW015 SCT025 04/01 Q1010

Idő: 01:13 (00:13 UTC)

Előrejelzés

A jelentés 4 órával és 13 perccel ezelõtt készült, 20:00 UTC
Az előrejelzés 19-én 21 óra UTC és 19-én 24 óra UTC között érvényes
Nyugati szél 15 kt
Látótávolság 10 km, vagy több
Kevés felhő 3000 lábon
19-én 21 óra UTC és 19-én 24 óra UTC között ideiglenes
Nyugati szél 25 kt

TAF: ENVD 192000Z 1921/1924 27015KT 9999 FEW030 TEMPO 1921/1924 27025KT

Meteorológiai megfigyelések és előrejelzések több, mint 4000 repülőtéren (METAR és TAF jelentéseket).

A térképen piros és sárga pontok jelzik az elérhető meteorológiai állomásokat.

Mozgassa az egeret a pont fölött, hogy megjelenjen az állomás neve.

Azután kattintson az időjárási megfigyelések és előrejelzések megtekintéséhez.

A térkép megváltoztatása: kattintson a fekete keresztel jelölt zöld gombra ráközelítéshez, a vonallal jelölt zöld gombra távolításhoz, vagy a zöld nyilakra a szomszédos térképek eléréséhez.


METAR-TAF: